Lynn, Illinois
Current Conditions -  °F | °C
As of 10:52 AM on Saturday 20 Dec 2014 (Local Time) from KMLI Reporting Station
Haze Haze  
Wind Chill: 26°   Ceiling: 2800
Heat Index: 32°   Visibility: 5mi
Dew Point: 25°   Wind: 7mph
Humidity: 75%   Direction: 150°SSE
Pressure: 30.25"   Gusts: NA
Location:  41.2827°N, 90.3344°W
Report Text: KMLI 201652Z 15006KT 5SM HZ OVC028 00/M04 A3025 RMK AO2 SLP251 T00001039
Loading
Personal Weather Stations






























Interactive Weather Map New forecast layout! Learn more

10-Day Weather Forecast

Advertisements
Track Severe Weather on mobile